sensor_id;sensor_type;location;lat;lon;timestamp;P1;durP1;ratioP1;P2;durP2;ratioP2
75548;SDS011;64133;56.002;37.208;2023-05-10T00:00:26;5.25;;;2.47;;
75548;SDS011;64133;56.002;37.208;2023-05-10T00:05:30;3.67;;;1.85;;
75548;SDS011;64133;56.002;37.208;2023-05-10T00:10:35;4.30;;;2.70;;
75548;SDS011;64133;56.002;37.208;2023-05-10T00:15:39;5.03;;;2.47;;
75548;SDS011;64133;56.002;37.208;2023-05-10T00:20:44;6.33;;;2.50;;
75548;SDS011;64133;56.002;37.208;2023-05-10T00:25:49;5.40;;;2.65;;
75548;SDS011;64133;56.002;37.208;2023-05-10T00:30:53;7.62;;;2.47;;
75548;SDS011;64133;56.002;37.208;2023-05-10T00:35:58;5.80;;;2.58;;
75548;SDS011;64133;56.002;37.208;2023-05-10T00:41:03;2.98;;;2.02;;
75548;SDS011;64133;56.002;37.208;2023-05-10T00:46:08;5.28;;;1.98;;
75548;SDS011;64133;56.002;37.208;2023-05-10T00:51:12;5.05;;;1.92;;
75548;SDS011;64133;56.002;37.208;2023-05-10T00:56:17;3.85;;;1.52;;
75548;SDS011;64133;56.002;37.208;2023-05-10T01:01:22;5.60;;;2.17;;
75548;SDS011;64133;56.002;37.208;2023-05-10T01:06:26;5.40;;;2.55;;
75548;SDS011;64133;56.002;37.208;2023-05-10T01:11:31;3.77;;;2.20;;
75548;SDS011;64133;56.002;37.208;2023-05-10T01:16:37;3.30;;;1.92;;
75548;SDS011;64133;56.002;37.208;2023-05-10T01:21:43;4.08;;;1.90;;
75548;SDS011;64133;56.002;37.208;2023-05-10T01:27:01;7.85;;;1.82;;
75548;SDS011;64133;56.002;37.208;2023-05-10T01:32:31;5.33;;;1.77;;
75548;SDS011;64133;56.002;37.208;2023-05-10T01:37:39;4.30;;;2.00;;
75548;SDS011;64133;56.002;37.208;2023-05-10T01:42:45;6.55;;;1.72;;
75548;SDS011;64133;56.002;37.208;2023-05-10T01:47:51;2.75;;;1.52;;
75548;SDS011;64133;56.002;37.208;2023-05-10T01:52:57;4.35;;;2.15;;
75548;SDS011;64133;56.002;37.208;2023-05-10T01:58:02;4.22;;;1.80;;
75548;SDS011;64133;56.002;37.208;2023-05-10T02:03:06;3.70;;;1.65;;
75548;SDS011;64133;56.002;37.208;2023-05-10T02:08:11;3.98;;;2.08;;
75548;SDS011;64133;56.002;37.208;2023-05-10T02:13:15;3.65;;;1.67;;
75548;SDS011;64133;56.002;37.208;2023-05-10T02:18:20;5.83;;;2.20;;
75548;SDS011;64133;56.002;37.208;2023-05-10T02:23:25;5.10;;;2.08;;
75548;SDS011;64133;56.002;37.208;2023-05-10T02:28:29;2.87;;;1.67;;
75548;SDS011;64133;56.002;37.208;2023-05-10T02:33:34;4.20;;;2.05;;
75548;SDS011;64133;56.002;37.208;2023-05-10T02:38:38;4.35;;;1.82;;
75548;SDS011;64133;56.002;37.208;2023-05-10T02:43:43;4.03;;;2.00;;
75548;SDS011;64133;56.002;37.208;2023-05-10T02:48:48;4.40;;;2.00;;
75548;SDS011;64133;56.002;37.208;2023-05-10T02:53:53;4.90;;;2.00;;
75548;SDS011;64133;56.002;37.208;2023-05-10T02:58:57;6.90;;;1.72;;
75548;SDS011;64133;56.002;37.208;2023-05-10T03:04:02;4.42;;;2.00;;
75548;SDS011;64133;56.002;37.208;2023-05-10T03:09:07;3.42;;;1.82;;
75548;SDS011;64133;56.002;37.208;2023-05-10T03:14:21;4.22;;;1.77;;
75548;SDS011;64133;56.002;37.208;2023-05-10T03:19:22;4.12;;;2.12;;
75548;SDS011;64133;56.002;37.208;2023-05-10T03:24:25;4.42;;;1.60;;
75548;SDS011;64133;56.002;37.208;2023-05-10T03:29:30;5.00;;;2.20;;
75548;SDS011;64133;56.002;37.208;2023-05-10T03:34:35;5.95;;;1.67;;
75548;SDS011;64133;56.002;37.208;2023-05-10T03:39:39;4.10;;;2.00;;
75548;SDS011;64133;56.002;37.208;2023-05-10T03:44:44;4.08;;;1.30;;
75548;SDS011;64133;56.002;37.208;2023-05-10T03:49:48;3.30;;;1.47;;
75548;SDS011;64133;56.002;37.208;2023-05-10T03:54:53;2.30;;;1.47;;
75548;SDS011;64133;56.002;37.208;2023-05-10T03:59:58;2.08;;;1.30;;
75548;SDS011;64133;56.002;37.208;2023-05-10T04:05:02;3.35;;;1.50;;
75548;SDS011;64133;56.002;37.208;2023-05-10T04:10:08;3.75;;;1.60;;
75548;SDS011;64133;56.002;37.208;2023-05-10T04:15:13;5.67;;;2.08;;
75548;SDS011;64133;56.002;37.208;2023-05-10T04:20:18;2.85;;;1.57;;
75548;SDS011;64133;56.002;37.208;2023-05-10T04:25:23;3.60;;;1.55;;
75548;SDS011;64133;56.002;37.208;2023-05-10T04:30:28;3.72;;;1.85;;
75548;SDS011;64133;56.002;37.208;2023-05-10T04:35:33;4.78;;;1.67;;
75548;SDS011;64133;56.002;37.208;2023-05-10T04:40:37;5.08;;;2.12;;
75548;SDS011;64133;56.002;37.208;2023-05-10T04:45:42;4.67;;;2.12;;
75548;SDS011;64133;56.002;37.208;2023-05-10T04:50:47;4.47;;;2.17;;
75548;SDS011;64133;56.002;37.208;2023-05-10T04:55:52;5.55;;;2.37;;
75548;SDS011;64133;56.002;37.208;2023-05-10T05:00:56;17.95;;;2.70;;
75548;SDS011;64133;56.002;37.208;2023-05-10T05:06:01;4.90;;;2.25;;
75548;SDS011;64133;56.002;37.208;2023-05-10T05:11:06;7.55;;;2.45;;
75548;SDS011;64133;56.002;37.208;2023-05-10T05:16:11;6.30;;;2.65;;
75548;SDS011;64133;56.002;37.208;2023-05-10T05:21:15;4.35;;;2.08;;
75548;SDS011;64133;56.002;37.208;2023-05-10T05:26:20;5.17;;;2.27;;
75548;SDS011;64133;56.002;37.208;2023-05-10T05:31:25;4.70;;;2.08;;
75548;SDS011;64133;56.002;37.208;2023-05-10T05:36:29;4.17;;;1.72;;
75548;SDS011;64133;56.002;37.208;2023-05-10T05:41:34;6.92;;;2.40;;
75548;SDS011;64133;56.002;37.208;2023-05-10T05:46:39;5.45;;;2.15;;
75548;SDS011;64133;56.002;37.208;2023-05-10T05:51:43;6.12;;;2.02;;
75548;SDS011;64133;56.002;37.208;2023-05-10T05:56:48;8.10;;;2.30;;
75548;SDS011;64133;56.002;37.208;2023-05-10T06:01:53;5.45;;;2.52;;
75548;SDS011;64133;56.002;37.208;2023-05-10T06:06:57;3.77;;;1.62;;
75548;SDS011;64133;56.002;37.208;2023-05-10T06:12:02;7.20;;;1.90;;
75548;SDS011;64133;56.002;37.208;2023-05-10T06:17:07;6.00;;;1.75;;
75548;SDS011;64133;56.002;37.208;2023-05-10T06:22:11;3.92;;;1.75;;
75548;SDS011;64133;56.002;37.208;2023-05-10T06:27:16;10.43;;;2.22;;
75548;SDS011;64133;56.002;37.208;2023-05-10T06:32:21;5.83;;;1.87;;
75548;SDS011;64133;56.002;37.208;2023-05-10T06:37:26;5.35;;;2.17;;
75548;SDS011;64133;56.002;37.208;2023-05-10T06:42:31;5.40;;;2.12;;
75548;SDS011;64133;56.002;37.208;2023-05-10T06:47:35;4.25;;;2.02;;
75548;SDS011;64133;56.002;37.208;2023-05-10T06:52:40;3.45;;;1.85;;
75548;SDS011;64133;56.002;37.208;2023-05-10T06:57:45;4.20;;;1.80;;
75548;SDS011;64133;56.002;37.208;2023-05-10T07:02:49;5.42;;;1.90;;
75548;SDS011;64133;56.002;37.208;2023-05-10T07:07:54;5.83;;;1.42;;
75548;SDS011;64133;56.002;37.208;2023-05-10T07:12:59;3.87;;;1.52;;
75548;SDS011;64133;56.002;37.208;2023-05-10T07:18:03;4.53;;;1.32;;
75548;SDS011;64133;56.002;37.208;2023-05-10T07:23:08;9.23;;;1.70;;
75548;SDS011;64133;56.002;37.208;2023-05-10T07:28:13;2.67;;;1.55;;
75548;SDS011;64133;56.002;37.208;2023-05-10T07:33:18;3.08;;;1.30;;
75548;SDS011;64133;56.002;37.208;2023-05-10T07:38:22;2.83;;;1.50;;
75548;SDS011;64133;56.002;37.208;2023-05-10T07:43:27;2.40;;;1.40;;
75548;SDS011;64133;56.002;37.208;2023-05-10T07:48:32;4.12;;;1.30;;
75548;SDS011;64133;56.002;37.208;2023-05-10T07:53:36;2.77;;;1.20;;
75548;SDS011;64133;56.002;37.208;2023-05-10T07:58:41;2.72;;;1.30;;
75548;SDS011;64133;56.002;37.208;2023-05-10T08:03:46;4.70;;;1.35;;
75548;SDS011;64133;56.002;37.208;2023-05-10T08:08:50;2.80;;;1.60;;
75548;SDS011;64133;56.002;37.208;2023-05-10T08:13:55;3.67;;;1.20;;
75548;SDS011;64133;56.002;37.208;2023-05-10T08:18:59;3.05;;;1.42;;
75548;SDS011;64133;56.002;37.208;2023-05-10T08:24:04;4.92;;;1.37;;
75548;SDS011;64133;56.002;37.208;2023-05-10T08:29:09;2.45;;;1.10;;
75548;SDS011;64133;56.002;37.208;2023-05-10T08:34:14;3.27;;;2.05;;
75548;SDS011;64133;56.002;37.208;2023-05-10T08:39:19;2.55;;;1.40;;
75548;SDS011;64133;56.002;37.208;2023-05-10T08:44:23;2.90;;;1.27;;
75548;SDS011;64133;56.002;37.208;2023-05-10T08:49:28;3.08;;;1.20;;
75548;SDS011;64133;56.002;37.208;2023-05-10T08:54:33;3.22;;;1.15;;
75548;SDS011;64133;56.002;37.208;2023-05-10T08:59:37;3.00;;;1.72;;
75548;SDS011;64133;56.002;37.208;2023-05-10T09:04:42;4.35;;;1.47;;
75548;SDS011;64133;56.002;37.208;2023-05-10T09:09:46;3.30;;;1.30;;
75548;SDS011;64133;56.002;37.208;2023-05-10T09:14:51;3.27;;;1.47;;
75548;SDS011;64133;56.002;37.208;2023-05-10T09:19:58;3.77;;;1.52;;
75548;SDS011;64133;56.002;37.208;2023-05-10T09:25:06;5.53;;;1.52;;
75548;SDS011;64133;56.002;37.208;2023-05-10T09:30:14;4.92;;;1.98;;
75548;SDS011;64133;56.002;37.208;2023-05-10T09:35:19;2.47;;;1.20;;
75548;SDS011;64133;56.002;37.208;2023-05-10T09:40:25;2.20;;;1.10;;
75548;SDS011;64133;56.002;37.208;2023-05-10T09:45:29;3.62;;;1.40;;
75548;SDS011;64133;56.002;37.208;2023-05-10T09:50:33;5.30;;;1.67;;
75548;SDS011;64133;56.002;37.208;2023-05-10T09:55:42;7.40;;;1.42;;
75548;SDS011;64133;56.002;37.208;2023-05-10T10:00:46;4.17;;;1.70;;
75548;SDS011;64133;56.002;37.208;2023-05-10T10:05:51;6.53;;;3.47;;
75548;SDS011;64133;56.002;37.208;2023-05-10T10:10:56;7.47;;;1.85;;
75548;SDS011;64133;56.002;37.208;2023-05-10T10:16:00;2.58;;;1.22;;
75548;SDS011;64133;56.002;37.208;2023-05-10T10:21:05;2.42;;;1.15;;
75548;SDS011;64133;56.002;37.208;2023-05-10T10:26:10;8.48;;;1.42;;
75548;SDS011;64133;56.002;37.208;2023-05-10T10:31:17;5.30;;;1.80;;
75548;SDS011;64133;56.002;37.208;2023-05-10T10:36:20;5.10;;;1.30;;
75548;SDS011;64133;56.002;37.208;2023-05-10T10:41:28;2.10;;;1.60;;
75548;SDS011;64133;56.002;37.208;2023-05-10T10:46:33;2.70;;;1.30;;
75548;SDS011;64133;56.002;37.208;2023-05-10T10:51:37;2.58;;;1.17;;
75548;SDS011;64133;56.002;37.208;2023-05-10T10:56:42;3.95;;;1.52;;
75548;SDS011;64133;56.002;37.208;2023-05-10T11:01:48;2.33;;;1.32;;
75548;SDS011;64133;56.002;37.208;2023-05-10T11:07:12;3.55;;;1.25;;
75548;SDS011;64133;56.002;37.208;2023-05-10T11:12:23;2.90;;;1.22;;
75548;SDS011;64133;56.002;37.208;2023-05-10T11:17:27;6.55;;;1.90;;
75548;SDS011;64133;56.002;37.208;2023-05-10T11:22:32;4.10;;;2.17;;
75548;SDS011;64133;56.002;37.208;2023-05-10T11:27:38;3.87;;;1.55;;
75548;SDS011;64133;56.002;37.208;2023-05-10T11:32:43;5.28;;;1.92;;
75548;SDS011;64133;56.002;37.208;2023-05-10T11:37:47;3.92;;;1.22;;
75548;SDS011;64133;56.002;37.208;2023-05-10T11:42:52;5.97;;;1.77;;
75548;SDS011;64133;56.002;37.208;2023-05-10T11:47:59;4.72;;;1.35;;
75548;SDS011;64133;56.002;37.208;2023-05-10T11:53:04;6.10;;;1.47;;
75548;SDS011;64133;56.002;37.208;2023-05-10T11:58:09;4.97;;;2.17;;
75548;SDS011;64133;56.002;37.208;2023-05-10T12:03:13;4.67;;;1.50;;
75548;SDS011;64133;56.002;37.208;2023-05-10T12:08:21;3.08;;;1.50;;
75548;SDS011;64133;56.002;37.208;2023-05-10T12:13:25;8.78;;;1.50;;
75548;SDS011;64133;56.002;37.208;2023-05-10T12:18:29;5.12;;;2.00;;
75548;SDS011;64133;56.002;37.208;2023-05-10T12:23:34;4.75;;;1.50;;
75548;SDS011;64133;56.002;37.208;2023-05-10T12:28:39;2.98;;;1.42;;
75548;SDS011;64133;56.002;37.208;2023-05-10T12:33:44;8.68;;;1.50;;
75548;SDS011;64133;56.002;37.208;2023-05-10T12:38:48;2.60;;;1.35;;
75548;SDS011;64133;56.002;37.208;2023-05-10T12:43:53;2.65;;;1.40;;
75548;SDS011;64133;56.002;37.208;2023-05-10T12:48:57;2.85;;;1.42;;
75548;SDS011;64133;56.002;37.208;2023-05-10T12:54:03;6.83;;;1.80;;
75548;SDS011;64133;56.002;37.208;2023-05-10T12:59:07;4.87;;;1.50;;
75548;SDS011;64133;56.002;37.208;2023-05-10T13:04:12;5.22;;;1.77;;
75548;SDS011;64133;56.002;37.208;2023-05-10T13:09:17;3.95;;;1.87;;
75548;SDS011;64133;56.002;37.208;2023-05-10T13:14:23;5.00;;;1.70;;
75548;SDS011;64133;56.002;37.208;2023-05-10T13:19:29;3.60;;;1.67;;
75548;SDS011;64133;56.002;37.208;2023-05-10T13:24:35;3.02;;;1.47;;
75548;SDS011;64133;56.002;37.208;2023-05-10T13:29:40;3.50;;;1.22;;
75548;SDS011;64133;56.002;37.208;2023-05-10T13:34:45;4.28;;;1.92;;
75548;SDS011;64133;56.002;37.208;2023-05-10T13:39:50;3.30;;;1.42;;
75548;SDS011;64133;56.002;37.208;2023-05-10T13:44:55;2.60;;;1.10;;
75548;SDS011;64133;56.002;37.208;2023-05-10T13:50:00;5.47;;;1.57;;
75548;SDS011;64133;56.002;37.208;2023-05-10T13:55:05;5.00;;;1.70;;
75548;SDS011;64133;56.002;37.208;2023-05-10T14:00:14;5.87;;;1.80;;
75548;SDS011;64133;56.002;37.208;2023-05-10T14:05:22;6.28;;;1.60;;
75548;SDS011;64133;56.002;37.208;2023-05-10T14:10:30;3.65;;;1.47;;
75548;SDS011;64133;56.002;37.208;2023-05-10T14:15:36;2.77;;;1.25;;
75548;SDS011;64133;56.002;37.208;2023-05-10T14:20:40;3.30;;;1.40;;
75548;SDS011;64133;56.002;37.208;2023-05-10T14:25:45;2.95;;;1.80;;
75548;SDS011;64133;56.002;37.208;2023-05-10T14:30:50;4.92;;;1.47;;
75548;SDS011;64133;56.002;37.208;2023-05-10T14:35:54;3.92;;;1.77;;
75548;SDS011;64133;56.002;37.208;2023-05-10T14:40:59;3.22;;;1.42;;
75548;SDS011;64133;56.002;37.208;2023-05-10T14:46:04;3.33;;;1.67;;
75548;SDS011;64133;56.002;37.208;2023-05-10T14:51:09;4.17;;;1.80;;
75548;SDS011;64133;56.002;37.208;2023-05-10T14:56:13;3.02;;;1.57;;
75548;SDS011;64133;56.002;37.208;2023-05-10T15:01:18;3.58;;;1.37;;
75548;SDS011;64133;56.002;37.208;2023-05-10T15:06:29;4.67;;;1.70;;
75548;SDS011;64133;56.002;37.208;2023-05-10T15:11:28;4.25;;;1.55;;
75548;SDS011;64133;56.002;37.208;2023-05-10T15:16:33;3.33;;;1.77;;
75548;SDS011;64133;56.002;37.208;2023-05-10T15:21:38;3.98;;;1.70;;
75548;SDS011;64133;56.002;37.208;2023-05-10T15:26:42;5.35;;;1.98;;
75548;SDS011;64133;56.002;37.208;2023-05-10T15:31:47;3.60;;;1.80;;
75548;SDS011;64133;56.002;37.208;2023-05-10T15:36:52;6.03;;;1.80;;
75548;SDS011;64133;56.002;37.208;2023-05-10T15:41:57;7.12;;;1.92;;
75548;SDS011;64133;56.002;37.208;2023-05-10T15:47:01;5.92;;;1.70;;
75548;SDS011;64133;56.002;37.208;2023-05-10T15:52:06;6.37;;;2.22;;
75548;SDS011;64133;56.002;37.208;2023-05-10T15:57:11;6.03;;;2.58;;
75548;SDS011;64133;56.002;37.208;2023-05-10T16:02:15;9.93;;;2.47;;
75548;SDS011;64133;56.002;37.208;2023-05-10T16:07:22;4.58;;;1.90;;
75548;SDS011;64133;56.002;37.208;2023-05-10T16:12:27;7.25;;;2.98;;
75548;SDS011;64133;56.002;37.208;2023-05-10T16:17:31;5.35;;;2.70;;
75548;SDS011;64133;56.002;37.208;2023-05-10T16:22:36;5.35;;;2.35;;
75548;SDS011;64133;56.002;37.208;2023-05-10T16:27:41;5.97;;;2.65;;
75548;SDS011;64133;56.002;37.208;2023-05-10T16:32:46;5.72;;;2.08;;
75548;SDS011;64133;56.002;37.208;2023-05-10T16:37:53;9.05;;;3.02;;
75548;SDS011;64133;56.002;37.208;2023-05-10T16:42:58;8.55;;;2.60;;
75548;SDS011;64133;56.002;37.208;2023-05-10T16:48:03;13.98;;;3.77;;
75548;SDS011;64133;56.002;37.208;2023-05-10T16:53:08;5.65;;;2.55;;
75548;SDS011;64133;56.002;37.208;2023-05-10T16:58:13;7.65;;;2.30;;
75548;SDS011;64133;56.002;37.208;2023-05-10T17:03:19;8.63;;;2.87;;
75548;SDS011;64133;56.002;37.208;2023-05-10T17:08:24;15.63;;;3.40;;
75548;SDS011;64133;56.002;37.208;2023-05-10T17:13:29;12.00;;;3.80;;
75548;SDS011;64133;56.002;37.208;2023-05-10T17:18:35;12.07;;;3.95;;
75548;SDS011;64133;56.002;37.208;2023-05-10T17:23:40;12.95;;;3.87;;
75548;SDS011;64133;56.002;37.208;2023-05-10T17:28:44;12.90;;;5.42;;
75548;SDS011;64133;56.002;37.208;2023-05-10T17:33:49;13.50;;;6.75;;
75548;SDS011;64133;56.002;37.208;2023-05-10T17:38:54;17.62;;;5.60;;
75548;SDS011;64133;56.002;37.208;2023-05-10T17:43:58;9.35;;;4.03;;
75548;SDS011;64133;56.002;37.208;2023-05-10T17:49:03;13.95;;;3.52;;
75548;SDS011;64133;56.002;37.208;2023-05-10T17:54:08;9.10;;;3.92;;
75548;SDS011;64133;56.002;37.208;2023-05-10T17:59:13;7.25;;;3.02;;
75548;SDS011;64133;56.002;37.208;2023-05-10T18:04:18;4.25;;;1.67;;
75548;SDS011;64133;56.002;37.208;2023-05-10T18:09:22;3.83;;;1.37;;
75548;SDS011;64133;56.002;37.208;2023-05-10T18:14:27;5.20;;;2.12;;
75548;SDS011;64133;56.002;37.208;2023-05-10T18:19:32;4.25;;;1.67;;
75548;SDS011;64133;56.002;37.208;2023-05-10T18:24:36;4.58;;;2.45;;
75548;SDS011;64133;56.002;37.208;2023-05-10T18:29:41;10.58;;;3.67;;
75548;SDS011;64133;56.002;37.208;2023-05-10T18:34:46;8.53;;;2.75;;
75548;SDS011;64133;56.002;37.208;2023-05-10T18:39:50;7.15;;;4.03;;
75548;SDS011;64133;56.002;37.208;2023-05-10T18:44:55;8.20;;;4.42;;
75548;SDS011;64133;56.002;37.208;2023-05-10T18:50:01;12.20;;;4.58;;
75548;SDS011;64133;56.002;37.208;2023-05-10T18:55:05;11.48;;;4.53;;
75548;SDS011;64133;56.002;37.208;2023-05-10T19:00:12;8.80;;;3.55;;
75548;SDS011;64133;56.002;37.208;2023-05-10T19:05:17;10.78;;;3.87;;
75548;SDS011;64133;56.002;37.208;2023-05-10T19:10:22;11.73;;;3.40;;
75548;SDS011;64133;56.002;37.208;2023-05-10T19:15:26;11.00;;;3.90;;
75548;SDS011;64133;56.002;37.208;2023-05-10T19:20:31;4.08;;;1.90;;
75548;SDS011;64133;56.002;37.208;2023-05-10T19:25:35;5.12;;;1.92;;
75548;SDS011;64133;56.002;37.208;2023-05-10T19:30:40;5.87;;;2.70;;
75548;SDS011;64133;56.002;37.208;2023-05-10T19:35:45;7.65;;;3.58;;
75548;SDS011;64133;56.002;37.208;2023-05-10T19:40:50;9.63;;;3.27;;
75548;SDS011;64133;56.002;37.208;2023-05-10T19:45:57;8.75;;;3.33;;
75548;SDS011;64133;56.002;37.208;2023-05-10T19:51:02;14.85;;;3.10;;
75548;SDS011;64133;56.002;37.208;2023-05-10T19:56:06;8.68;;;3.70;;
75548;SDS011;64133;56.002;37.208;2023-05-10T20:01:11;10.85;;;3.10;;
75548;SDS011;64133;56.002;37.208;2023-05-10T20:06:15;7.50;;;3.58;;
75548;SDS011;64133;56.002;37.208;2023-05-10T20:11:20;6.17;;;2.98;;
75548;SDS011;64133;56.002;37.208;2023-05-10T20:16:25;11.57;;;2.98;;
75548;SDS011;64133;56.002;37.208;2023-05-10T20:21:29;5.20;;;2.98;;
75548;SDS011;64133;56.002;37.208;2023-05-10T20:26:35;10.63;;;3.85;;
75548;SDS011;64133;56.002;37.208;2023-05-10T20:31:39;9.18;;;3.42;;
75548;SDS011;64133;56.002;37.208;2023-05-10T20:36:44;9.33;;;2.83;;
75548;SDS011;64133;56.002;37.208;2023-05-10T20:41:49;6.03;;;2.87;;
75548;SDS011;64133;56.002;37.208;2023-05-10T20:46:54;6.33;;;2.83;;
75548;SDS011;64133;56.002;37.208;2023-05-10T20:51:58;10.75;;;3.33;;
75548;SDS011;64133;56.002;37.208;2023-05-10T20:57:03;7.75;;;3.22;;
75548;SDS011;64133;56.002;37.208;2023-05-10T21:02:08;8.28;;;3.37;;
75548;SDS011;64133;56.002;37.208;2023-05-10T21:07:12;12.93;;;3.55;;
75548;SDS011;64133;56.002;37.208;2023-05-10T21:12:17;9.13;;;3.20;;
75548;SDS011;64133;56.002;37.208;2023-05-10T21:17:22;11.38;;;3.27;;
75548;SDS011;64133;56.002;37.208;2023-05-10T21:22:26;8.30;;;2.92;;
75548;SDS011;64133;56.002;37.208;2023-05-10T21:27:31;9.03;;;2.42;;
75548;SDS011;64133;56.002;37.208;2023-05-10T21:32:36;12.58;;;3.25;;
75548;SDS011;64133;56.002;37.208;2023-05-10T21:37:40;12.65;;;2.70;;
75548;SDS011;64133;56.002;37.208;2023-05-10T21:42:45;9.43;;;3.00;;
75548;SDS011;64133;56.002;37.208;2023-05-10T21:47:50;8.33;;;3.10;;
75548;SDS011;64133;56.002;37.208;2023-05-10T21:52:54;10.20;;;3.67;;
75548;SDS011;64133;56.002;37.208;2023-05-10T21:57:59;10.43;;;3.10;;
75548;SDS011;64133;56.002;37.208;2023-05-10T22:03:03;14.10;;;3.37;;
75548;SDS011;64133;56.002;37.208;2023-05-10T22:08:08;10.50;;;3.15;;
75548;SDS011;64133;56.002;37.208;2023-05-10T22:13:15;8.23;;;3.77;;
75548;SDS011;64133;56.002;37.208;2023-05-10T22:18:20;9.80;;;4.08;;
75548;SDS011;64133;56.002;37.208;2023-05-10T22:23:24;9.70;;;3.80;;
75548;SDS011;64133;56.002;37.208;2023-05-10T22:28:29;6.58;;;3.72;;
75548;SDS011;64133;56.002;37.208;2023-05-10T22:33:34;9.65;;;3.47;;
75548;SDS011;64133;56.002;37.208;2023-05-10T22:38:38;16.17;;;3.80;;
75548;SDS011;64133;56.002;37.208;2023-05-10T22:43:43;11.70;;;3.72;;
75548;SDS011;64133;56.002;37.208;2023-05-10T22:48:48;12.45;;;5.00;;
75548;SDS011;64133;56.002;37.208;2023-05-10T22:53:52;12.45;;;3.42;;
75548;SDS011;64133;56.002;37.208;2023-05-10T22:58:57;10.85;;;4.10;;
75548;SDS011;64133;56.002;37.208;2023-05-10T23:04:02;12.68;;;3.87;;
75548;SDS011;64133;56.002;37.208;2023-05-10T23:09:06;13.45;;;3.58;;
75548;SDS011;64133;56.002;37.208;2023-05-10T23:14:11;9.43;;;4.15;;
75548;SDS011;64133;56.002;37.208;2023-05-10T23:19:16;10.82;;;4.12;;
75548;SDS011;64133;56.002;37.208;2023-05-10T23:24:21;11.95;;;3.35;;
75548;SDS011;64133;56.002;37.208;2023-05-10T23:29:28;9.05;;;3.55;;
75548;SDS011;64133;56.002;37.208;2023-05-10T23:34:33;10.63;;;4.22;;
75548;SDS011;64133;56.002;37.208;2023-05-10T23:39:38;8.80;;;3.27;;
75548;SDS011;64133;56.002;37.208;2023-05-10T23:44:42;8.73;;;3.58;;
75548;SDS011;64133;56.002;37.208;2023-05-10T23:49:48;8.63;;;4.33;;
75548;SDS011;64133;56.002;37.208;2023-05-10T23:54:53;11.45;;;3.85;;
75548;SDS011;64133;56.002;37.208;2023-05-10T23:59:57;10.58;;;4.58;;
